createdAt,value
2023-02-17T00:01:17.616Z,7.15
2023-02-17T00:04:22.963Z,8.35
2023-02-17T00:07:32.037Z,8.18
2023-02-17T00:10:37.311Z,6.90
2023-02-17T00:13:43.271Z,6.45
2023-02-17T00:16:51.447Z,6.97
2023-02-17T00:19:57.222Z,7.10
2023-02-17T00:23:02.328Z,7.70
2023-02-17T00:26:08.278Z,8.00
2023-02-17T00:29:14.041Z,7.45
2023-02-17T00:32:22.214Z,7.32
2023-02-17T00:35:28.347Z,7.50
2023-02-17T00:38:34.067Z,7.72
2023-02-17T00:41:39.261Z,7.15
2023-02-17T00:44:44.837Z,7.97
2023-02-17T00:47:54.352Z,6.95
2023-02-17T00:51:01.344Z,7.47
2023-02-17T00:54:07.068Z,7.78
2023-02-17T00:57:12.760Z,6.93
2023-02-17T01:00:19.098Z,7.15
2023-02-17T01:03:28.062Z,8.07
2023-02-17T01:06:34.374Z,7.13
2023-02-17T01:09:39.791Z,7.78
2023-02-17T01:12:45.153Z,7.97
2023-02-17T01:15:51.865Z,7.85
2023-02-17T01:18:59.865Z,7.40
2023-02-17T01:22:05.924Z,7.65
2023-02-17T01:25:11.817Z,7.03
2023-02-17T01:28:18.856Z,7.43
2023-02-17T01:31:27.338Z,7.22
2023-02-17T01:34:35.701Z,8.13
2023-02-17T01:37:40.993Z,8.80
2023-02-17T01:40:50.028Z,7.18
2023-02-17T01:44:09.219Z,8.15
2023-02-17T01:47:15.932Z,7.35
2023-02-17T01:50:25.958Z,7.82
2023-02-17T01:53:35.823Z,8.00
2023-02-17T01:56:43.343Z,8.18
2023-02-17T01:59:48.774Z,8.05
2023-02-17T02:02:54.906Z,7.75
2023-02-17T02:06:03.502Z,8.15
2023-02-17T02:09:12.541Z,7.53
2023-02-17T02:12:20.475Z,8.75
2023-02-17T02:15:27.485Z,8.25
2023-02-17T02:18:41.129Z,8.15
2023-02-17T02:22:01.526Z,8.32
2023-02-17T02:25:15.389Z,8.95
2023-02-17T02:28:26.287Z,8.77
2023-02-17T02:31:40.921Z,8.10
2023-02-17T02:34:50.463Z,7.97
2023-02-17T02:37:58.873Z,7.47
2023-02-17T02:41:07.327Z,8.65
2023-02-17T02:44:14.310Z,8.20
2023-02-17T02:47:34.641Z,8.15
2023-02-17T02:50:49.833Z,6.60
2023-02-17T02:54:09.989Z,7.25
2023-02-17T02:57:25.842Z,8.50
2023-02-17T03:00:35.437Z,7.32
2023-02-17T03:03:45.108Z,7.07
2023-02-17T03:06:56.839Z,6.80
2023-02-17T03:10:02.986Z,6.70
2023-02-17T03:13:08.577Z,7.22
2023-02-17T03:16:15.900Z,6.68
2023-02-17T03:19:23.524Z,6.65
2023-02-17T03:22:33.912Z,7.90
2023-02-17T03:25:39.396Z,6.45
2023-02-17T03:28:46.109Z,6.63
2023-02-17T03:31:51.245Z,7.43
2023-02-17T03:34:57.377Z,6.55
2023-02-17T03:38:05.513Z,6.88
2023-02-17T03:44:16.056Z,6.65
2023-02-17T03:47:21.369Z,7.22
2023-02-17T03:50:26.912Z,6.95
2023-02-17T03:53:34.683Z,6.38
2023-02-17T03:56:40.004Z,7.13
2023-02-17T03:59:45.198Z,6.45
2023-02-17T04:02:50.491Z,6.90
2023-02-17T04:05:55.904Z,6.45
2023-02-17T04:09:04.076Z,7.70
2023-02-17T04:12:09.309Z,7.45
2023-02-17T04:15:14.995Z,7.18
2023-02-17T04:18:21.123Z,8.15
2023-02-17T04:21:26.798Z,7.63
2023-02-17T04:24:34.668Z,8.52
2023-02-17T04:27:40.280Z,8.00
2023-02-17T04:30:46.737Z,8.43
2023-02-17T04:33:52.215Z,8.38
2023-02-17T04:36:58.204Z,7.88
2023-02-17T04:40:10.599Z,9.13
2023-02-17T04:43:15.972Z,8.30
2023-02-17T04:46:21.405Z,7.93
2023-02-17T04:49:26.955Z,7.82
2023-02-17T04:52:32.330Z,7.72
2023-02-17T04:55:40.981Z,7.65
2023-02-17T04:58:46.449Z,7.32
2023-02-17T05:01:51.771Z,8.23
2023-02-17T05:04:57.337Z,7.38
2023-02-17T05:08:02.861Z,7.78
2023-02-17T05:11:10.697Z,7.50
2023-02-17T05:14:16.225Z,9.20
2023-02-17T05:17:21.733Z,8.23
2023-02-17T05:20:27.167Z,8.25
2023-02-17T05:23:32.625Z,9.50
2023-02-17T05:26:40.790Z,9.40
2023-02-17T05:32:51.448Z,10.52
2023-02-17T05:35:57.502Z,10.07
2023-02-17T05:39:02.900Z,10.48
2023-02-17T05:42:11.064Z,11.35
2023-02-17T05:45:16.314Z,9.88
2023-02-17T05:48:21.887Z,9.77
2023-02-17T05:51:27.432Z,9.30
2023-02-17T05:54:32.725Z,9.88
2023-02-17T05:57:40.912Z,9.43
2023-02-17T06:00:46.445Z,9.18
2023-02-17T06:03:52.158Z,8.50
2023-02-17T06:06:57.703Z,9.43
2023-02-17T06:10:03.079Z,8.13
2023-02-17T06:13:11.953Z,9.20
2023-02-17T06:16:17.325Z,8.77
2023-02-17T06:19:22.503Z,8.65
2023-02-17T06:22:28.057Z,9.10
2023-02-17T06:25:33.383Z,9.40
2023-02-17T06:28:41.182Z,9.65
2023-02-17T06:31:47.063Z,10.07
2023-02-17T06:34:52.620Z,11.02
2023-02-17T06:37:57.992Z,10.48
2023-02-17T06:41:03.564Z,11.75
2023-02-17T06:44:11.633Z,10.25
2023-02-17T06:47:17.126Z,12.27
2023-02-17T06:50:22.632Z,11.02
2023-02-17T06:53:28.133Z,12.95
2023-02-17T06:56:33.507Z,11.43
2023-02-17T06:59:41.634Z,11.70
2023-02-17T07:02:47.355Z,11.60
2023-02-17T07:05:56.678Z,11.38
2023-02-17T07:09:01.908Z,9.93
2023-02-17T07:12:07.179Z,11.10
2023-02-17T07:15:15.330Z,10.65
2023-02-17T07:18:20.640Z,10.52
2023-02-17T07:21:26.648Z,10.85
2023-02-17T07:24:31.940Z,10.25
2023-02-17T07:27:38.224Z,9.85
2023-02-17T07:30:46.747Z,9.55
2023-02-17T07:33:52.595Z,10.15
2023-02-17T07:36:57.811Z,9.40
2023-02-17T07:40:04.430Z,9.75
2023-02-17T07:43:09.829Z,9.40
2023-02-17T07:46:17.904Z,9.40
2023-02-17T07:49:23.519Z,9.27
2023-02-17T07:52:29.221Z,9.20
2023-02-17T07:55:34.595Z,10.48
2023-02-17T07:58:41.084Z,9.68
2023-02-17T08:01:49.027Z,9.65
2023-02-17T08:04:55.240Z,9.68
2023-02-17T08:08:13.028Z,11.18
2023-02-17T08:11:31.636Z,10.18
2023-02-17T08:17:45.702Z,9.50
2023-02-17T08:20:51.371Z,9.43
2023-02-17T08:23:56.932Z,10.13
2023-02-17T08:27:02.726Z,8.80
2023-02-17T08:30:08.825Z,8.85
2023-02-17T08:33:19.112Z,8.65
2023-02-17T08:36:27.168Z,7.75
2023-02-17T08:39:32.529Z,8.80
2023-02-17T08:42:39.138Z,7.88
2023-02-17T08:45:44.820Z,9.18
2023-02-17T08:48:53.073Z,7.70
2023-02-17T08:51:59.002Z,9.43
2023-02-17T08:55:04.252Z,8.52
2023-02-17T08:58:09.778Z,8.80
2023-02-17T09:01:15.586Z,9.07
2023-02-17T09:04:23.566Z,9.45
2023-02-17T09:07:29.182Z,8.75
2023-02-17T09:10:34.829Z,10.30
2023-02-17T09:13:40.685Z,10.02
2023-02-17T09:16:46.308Z,9.80
2023-02-17T09:19:55.021Z,9.43
2023-02-17T09:23:01.019Z,9.70
2023-02-17T09:26:07.951Z,8.02
2023-02-17T09:29:14.473Z,7.38
2023-02-17T09:32:19.929Z,7.80
2023-02-17T09:35:28.300Z,7.10
2023-02-17T09:38:34.040Z,8.57
2023-02-17T09:41:41.243Z,7.72
2023-02-17T09:44:47.989Z,9.15
2023-02-17T09:47:55.303Z,8.50
2023-02-17T09:51:03.832Z,9.25
2023-02-17T09:54:11.777Z,9.38
2023-02-17T09:57:21.025Z,10.18
2023-02-17T10:00:28.121Z,8.70
2023-02-17T10:03:35.934Z,9.30
2023-02-17T10:06:46.997Z,9.73
2023-02-17T10:09:53.685Z,8.93
2023-02-17T10:13:00.543Z,9.85
2023-02-17T10:16:08.634Z,10.15
2023-02-17T10:19:17.153Z,10.40
2023-02-17T10:22:26.654Z,10.00
2023-02-17T10:25:42.549Z,11.88
2023-02-17T10:28:52.933Z,10.20
2023-02-17T10:32:06.321Z,10.45
2023-02-17T10:35:18.090Z,10.10
2023-02-17T10:38:36.644Z,11.20
2023-02-17T10:41:43.399Z,10.25
2023-02-17T10:44:49.084Z,11.18
2023-02-17T10:47:57.720Z,10.70
2023-02-17T10:51:03.906Z,11.23
2023-02-17T10:54:26.383Z,11.57
2023-02-17T10:57:33.376Z,11.00
2023-02-17T11:00:38.788Z,11.95
2023-02-17T11:03:44.495Z,11.70
2023-02-17T11:06:52.094Z,11.65
2023-02-17T11:10:03.332Z,11.45
2023-02-17T11:13:22.567Z,11.43
2023-02-17T11:16:29.729Z,12.70
2023-02-17T11:19:36.648Z,12.57
2023-02-17T11:22:45.716Z,12.48
2023-02-17T11:26:01.312Z,11.82
2023-02-17T11:29:13.779Z,13.02
2023-02-17T11:32:20.225Z,12.02
2023-02-17T11:35:27.599Z,12.32
2023-02-17T11:38:37.337Z,12.67
2023-02-17T11:41:45.687Z,14.18
2023-02-17T11:44:51.382Z,12.45
2023-02-17T11:48:05.483Z,11.88
2023-02-17T11:51:13.584Z,13.15
2023-02-17T11:57:36.766Z,12.20
2023-02-17T12:00:45.962Z,13.60
2023-02-17T12:04:14.165Z,13.50
2023-02-17T12:10:28.501Z,13.70
2023-02-17T12:13:42.120Z,12.82
2023-02-17T12:16:50.811Z,14.15
2023-02-17T12:20:01.406Z,14.35
2023-02-17T12:23:13.514Z,13.93
2023-02-17T12:26:23.568Z,15.05
2023-02-17T12:29:41.595Z,15.00
2023-02-17T12:32:54.460Z,15.38
2023-02-17T12:36:01.053Z,15.20
2023-02-17T12:39:13.445Z,15.98
2023-02-17T12:42:22.385Z,16.88
2023-02-17T12:45:33.735Z,16.20
2023-02-17T12:48:41.341Z,15.88
2023-02-17T12:51:48.729Z,16.70
2023-02-17T12:54:57.235Z,16.20
2023-02-17T12:58:04.614Z,17.08
2023-02-17T13:01:14.585Z,15.30
2023-02-17T13:04:21.257Z,16.90
2023-02-17T13:07:29.960Z,16.65
2023-02-17T13:10:37.124Z,16.55
2023-02-17T13:13:43.063Z,15.73
2023-02-17T13:16:50.939Z,15.73
2023-02-17T13:20:11.562Z,14.40
2023-02-17T13:23:17.828Z,15.25
2023-02-17T13:26:32.000Z,14.85
2023-02-17T13:29:37.963Z,14.40
2023-02-17T13:32:46.070Z,15.10
2023-02-17T13:35:52.187Z,14.32
2023-02-17T13:39:00.836Z,14.43
2023-02-17T13:42:07.455Z,14.50
2023-02-17T13:45:17.730Z,13.52
2023-02-17T13:48:29.720Z,16.90
2023-02-17T13:51:36.703Z,15.00
2023-02-17T13:54:44.013Z,14.30
2023-02-17T13:57:49.787Z,15.57
2023-02-17T14:00:56.209Z,15.80
2023-02-17T14:04:05.243Z,15.25
2023-02-17T14:07:10.900Z,16.35
2023-02-17T14:10:19.963Z,15.68
2023-02-17T14:13:25.840Z,15.35
2023-02-17T14:16:33.965Z,16.48
2023-02-17T14:19:49.296Z,15.55
2023-02-17T14:23:04.396Z,16.55
2023-02-17T14:26:12.886Z,15.20
2023-02-17T14:29:18.541Z,13.60
2023-02-17T14:32:30.692Z,13.68
2023-02-17T14:35:39.803Z,14.73
2023-02-17T14:38:45.714Z,14.18
2023-02-17T14:41:51.070Z,14.32
2023-02-17T14:44:56.627Z,14.93
2023-02-17T14:48:02.173Z,12.48
2023-02-17T14:51:14.509Z,13.77
2023-02-17T14:54:20.827Z,12.90
2023-02-17T14:57:29.331Z,13.27
2023-02-17T15:00:34.660Z,14.57
2023-02-17T15:03:40.271Z,13.73
2023-02-17T15:06:50.935Z,14.20
2023-02-17T15:09:56.438Z,13.55
2023-02-17T15:13:01.842Z,15.07
2023-02-17T15:16:08.695Z,14.02
2023-02-17T15:19:15.211Z,13.05
2023-02-17T15:22:24.649Z,14.05
2023-02-17T15:25:38.813Z,13.80
2023-02-17T15:28:44.316Z,14.57
2023-02-17T15:31:50.298Z,14.13
2023-02-17T15:34:55.853Z,11.82
2023-02-17T15:38:03.822Z,12.77
2023-02-17T15:41:14.332Z,13.18
2023-02-17T15:44:20.964Z,12.90
2023-02-17T15:47:27.318Z,12.75
2023-02-17T15:50:32.924Z,12.40
2023-02-17T15:53:40.995Z,12.32
2023-02-17T15:56:48.595Z,12.35
2023-02-17T15:59:55.326Z,10.77
2023-02-17T16:03:01.141Z,11.95
2023-02-17T16:06:06.929Z,11.48
2023-02-17T16:09:15.056Z,12.98
2023-02-17T16:12:27.356Z,11.55
2023-02-17T16:15:34.133Z,11.27
2023-02-17T16:18:39.706Z,11.70
2023-02-17T16:21:45.032Z,12.15
2023-02-17T16:24:53.355Z,12.10
2023-02-17T16:27:59.161Z,11.48
2023-02-17T16:31:04.660Z,13.27
2023-02-17T16:34:10.070Z,12.07
2023-02-17T16:37:17.331Z,12.27
2023-02-17T16:40:26.357Z,12.45
2023-02-17T16:43:31.851Z,12.80
2023-02-17T16:46:39.668Z,12.93
2023-02-17T16:49:47.669Z,12.48
2023-02-17T16:52:52.972Z,12.82
2023-02-17T16:56:01.020Z,12.40
2023-02-17T16:59:06.459Z,13.40
2023-02-17T17:02:13.661Z,13.15
2023-02-17T17:05:19.893Z,12.82
2023-02-17T17:08:25.493Z,12.73
2023-02-17T17:11:34.180Z,13.05
2023-02-17T17:14:39.716Z,11.73
2023-02-17T17:17:46.170Z,13.23
2023-02-17T17:20:52.112Z,13.27
2023-02-17T17:23:57.733Z,14.18
2023-02-17T17:27:05.912Z,14.27
2023-02-17T17:33:16.574Z,13.00
2023-02-17T17:36:25.266Z,13.38
2023-02-17T17:39:30.829Z,13.00
2023-02-17T17:42:39.322Z,12.07
2023-02-17T17:48:49.564Z,12.85
2023-02-17T17:51:55.149Z,12.07
2023-02-17T17:55:00.600Z,11.27
2023-02-17T17:58:08.533Z,12.40
2023-02-17T18:01:14.412Z,12.60
2023-02-17T18:04:20.002Z,13.02
2023-02-17T18:07:25.294Z,12.35
2023-02-17T18:10:31.185Z,11.88
2023-02-17T18:13:40.226Z,12.75
2023-02-17T18:16:46.264Z,13.27
2023-02-17T18:19:54.752Z,12.35
2023-02-17T18:26:05.660Z,12.93
2023-02-17T18:29:14.264Z,12.00
2023-02-17T18:32:22.242Z,11.75
2023-02-17T18:35:28.016Z,12.93
2023-02-17T18:38:33.732Z,12.93
2023-02-17T18:41:38.774Z,14.23
2023-02-17T18:44:46.713Z,13.05
2023-02-17T18:47:52.388Z,13.52
2023-02-17T18:50:57.585Z,13.65
2023-02-17T18:54:03.657Z,13.30
2023-02-17T18:57:09.007Z,13.45
2023-02-17T19:00:18.253Z,13.00
2023-02-17T19:03:23.590Z,13.50
2023-02-17T19:06:30.201Z,14.63
2023-02-17T19:09:35.835Z,12.63
2023-02-17T19:12:41.268Z,13.93
2023-02-17T19:15:49.045Z,14.18
2023-02-17T19:18:54.697Z,13.73
2023-02-17T19:22:00.154Z,15.68
2023-02-17T19:25:05.920Z,15.88
2023-02-17T19:28:11.553Z,15.10
2023-02-17T19:31:20.707Z,13.75
2023-02-17T19:34:26.224Z,13.55
2023-02-17T19:37:31.988Z,12.80
2023-02-17T19:40:37.928Z,14.25
2023-02-17T19:43:43.747Z,13.70
2023-02-17T19:46:51.749Z,14.48
2023-02-17T19:49:57.653Z,14.93
2023-02-17T19:53:03.043Z,14.10
2023-02-17T19:56:13.017Z,14.82
2023-02-17T19:59:18.671Z,15.98
2023-02-17T20:02:27.205Z,14.40
2023-02-17T20:05:32.369Z,14.40
2023-02-17T20:08:38.037Z,14.65
2023-02-17T20:11:43.364Z,15.88
2023-02-17T20:14:48.989Z,15.27
2023-02-17T20:17:56.661Z,15.32
2023-02-17T20:21:02.341Z,15.75
2023-02-17T20:24:07.593Z,13.93
2023-02-17T20:27:13.281Z,15.27
2023-02-17T20:30:18.817Z,14.32
2023-02-17T20:33:27.221Z,16.80
2023-02-17T20:36:32.995Z,13.75
2023-02-17T20:39:38.929Z,14.15
2023-02-17T20:42:44.306Z,14.65
2023-02-17T20:45:50.502Z,13.70
2023-02-17T20:48:58.643Z,14.60
2023-02-17T20:52:06.119Z,15.27
2023-02-17T20:55:13.754Z,14.27
2023-02-17T20:58:19.701Z,14.98
2023-02-17T21:01:24.979Z,14.95
2023-02-17T21:04:33.156Z,14.50
2023-02-17T21:07:38.391Z,14.23
2023-02-17T21:10:43.566Z,16.27
2023-02-17T21:13:49.096Z,16.33
2023-02-17T21:16:54.493Z,13.32
2023-02-17T21:20:02.266Z,14.57
2023-02-17T21:23:09.341Z,12.73
2023-02-17T21:26:16.136Z,15.20
2023-02-17T21:29:21.513Z,14.85
2023-02-17T21:32:27.087Z,15.77
2023-02-17T21:35:35.062Z,16.08
2023-02-17T21:38:40.602Z,16.50
2023-02-17T21:41:46.756Z,17.23
2023-02-17T21:44:52.604Z,17.80
2023-02-17T21:47:58.412Z,16.77
2023-02-17T21:51:09.944Z,18.48
2023-02-17T21:54:15.543Z,19.90
2023-02-17T21:57:20.884Z,21.42
2023-02-17T22:00:26.160Z,22.02
2023-02-17T22:03:31.679Z,22.85
2023-02-17T22:06:41.012Z,23.50
2023-02-17T22:09:46.521Z,23.38
2023-02-17T22:12:53.060Z,22.83
2023-02-17T22:16:01.338Z,21.83
2023-02-17T22:19:07.963Z,20.27
2023-02-17T22:22:15.779Z,23.23
2023-02-17T22:28:26.595Z,21.40
2023-02-17T22:31:33.546Z,20.83
2023-02-17T22:34:39.338Z,21.65
2023-02-17T22:37:48.035Z,19.92
2023-02-17T22:40:53.504Z,21.20
2023-02-17T22:43:58.606Z,20.10
2023-02-17T22:47:04.259Z,22.08
2023-02-17T22:50:10.324Z,20.85
2023-02-17T22:53:18.104Z,20.23
2023-02-17T22:56:24.197Z,19.13
2023-02-17T22:59:29.413Z,20.42
2023-02-17T23:02:37.299Z,21.02
2023-02-17T23:05:43.161Z,19.95
2023-02-17T23:08:51.581Z,19.75
2023-02-17T23:11:58.556Z,17.90
2023-02-17T23:15:03.963Z,18.13
2023-02-17T23:18:11.029Z,18.30
2023-02-17T23:21:16.657Z,18.48
2023-02-17T23:24:25.624Z,17.27
2023-02-17T23:27:30.893Z,18.10
2023-02-17T23:30:36.700Z,16.70
2023-02-17T23:33:42.607Z,16.98
2023-02-17T23:36:49.068Z,14.70
2023-02-17T23:39:57.357Z,17.23
2023-02-17T23:43:03.147Z,15.73
2023-02-17T23:46:08.621Z,15.57
2023-02-17T23:49:15.550Z,13.93
2023-02-17T23:52:20.867Z,14.95
2023-02-17T23:55:29.002Z,13.93
